Accueil
METAR-TAF:

METAR-TAF

Aéroports :

Aéroport de Gênes-Christophe Colomb

Gênes, Italie

latitude: 44-25N, longitude: 008-51E, altitude: 2 m

Observation

Le bulletin a été fait il y a 31 minutes, à 15:50 UTC
Vent 4 kt de sud
Température 18°C
Humidité 83%
Pression 1023 hPa
Visibilité 10 km ou plus
Nuages épars à une hauteur de 1500 ft
Nuages fragmentés à une hauteur de 2800 ft

METAR: LIMJ 301550Z 17004KT 9999 SCT015 BKN028 18/15 Q1023

Heure: 17:21 (16:21 UTC)

Prévision

Le bulletin a été fait il y a 5 heures et 21 minutes, à 11:00 UTC
Prévision valable du 30 à 12 UTC au 31 à 12 UTC
Vent 5 kt de direction variable
Visibilité 10 km ou plus
Quelques nuages à une hauteur de 3000 ft

TAF: LIMJ 301100Z 3012/3112 VRB05KT 9999 FEW030

Observations et prévisions météorologiques de plus de 4000 aéroports (messages METAR et TAF).

Les stations disponibles sont représentées par des disques jaunes et rouges sur la carte.

Passer la souris dessus pour voir le nom de la station.

Cliquer dessus pour voir les observations et prévisions météorologiques.

Pour changer de carte: cliquez sur les boutons verts avec une croix noire pour zoomer, sur le bouton vert avec un tiret pour effectuer un zoom arrière, ou sur les flèches vertes pour les cartes adjacentes.


METAR-TAF: